createdAt,value
2022-10-05T00:00:59.171Z,49595.44
2022-10-05T00:03:33.477Z,49611.38
2022-10-05T00:06:00.451Z,49639.28
2022-10-05T00:08:32.134Z,49601.41
2022-10-05T00:10:59.425Z,49617.38
2022-10-05T00:13:29.044Z,49655.25
2022-10-05T00:16:07.771Z,49555.56
2022-10-05T00:18:34.466Z,49649.25
2022-10-05T00:21:01.768Z,49627.31
2022-10-05T00:23:31.111Z,49599.41
2022-10-05T00:26:06.545Z,49591.44
2022-10-05T00:28:33.176Z,49665.22
2022-10-05T00:31:01.043Z,49631.31
2022-10-05T00:33:28.272Z,49629.31
2022-10-05T00:35:55.537Z,49627.31
2022-10-05T00:38:22.535Z,49615.38
2022-10-05T00:41:08.641Z,49639.28
2022-10-05T00:43:44.093Z,49623.34
2022-10-05T00:46:19.886Z,49583.47
2022-10-05T00:48:54.843Z,49611.38
2022-10-05T00:51:29.947Z,49639.28
2022-10-05T00:54:21.762Z,49603.41
2022-10-05T00:57:18.946Z,49615.38
2022-10-05T00:59:57.845Z,49617.38
2022-10-05T01:02:36.885Z,49619.34
2022-10-05T01:05:40.324Z,49615.38
2022-10-05T01:08:22.942Z,49631.31
2022-10-05T01:11:13.337Z,49619.34
2022-10-05T01:13:48.821Z,49631.31
2022-10-05T01:16:25.733Z,49589.44
2022-10-05T01:18:53.122Z,49611.38
2022-10-05T01:21:21.822Z,49623.34
2022-10-05T01:24:25.453Z,49627.31
2022-10-05T01:27:32.823Z,49641.28
2022-10-05T01:29:59.304Z,49623.34
2022-10-05T01:32:39.405Z,49623.34
2022-10-05T01:35:44.753Z,49623.34
2022-10-05T01:38:32.998Z,49619.34
2022-10-05T01:41:10.143Z,49609.38
2022-10-05T01:43:46.747Z,49623.34
2022-10-05T01:46:30.678Z,49599.41
2022-10-05T01:49:12.831Z,49615.38
2022-10-05T01:52:12.568Z,49639.28
2022-10-05T01:54:39.229Z,49659.22
2022-10-05T01:57:38.139Z,49637.28
2022-10-05T02:00:11.329Z,49635.31
2022-10-05T02:03:01.696Z,49629.31
2022-10-05T02:05:57.427Z,49617.38
2022-10-05T02:08:43.689Z,49593.44
2022-10-05T02:11:17.267Z,49619.34
2022-10-05T02:13:57.251Z,49609.38
2022-10-05T02:16:37.317Z,49599.41
2022-10-05T02:19:27.575Z,49629.31
2022-10-05T02:22:12.823Z,49635.31
2022-10-05T02:24:45.383Z,49607.41
2022-10-05T02:27:17.547Z,49645.28
2022-10-05T02:29:48.273Z,49615.38
2022-10-05T02:32:22.603Z,49615.38
2022-10-05T02:34:49.885Z,49643.28
2022-10-05T02:37:54.343Z,49639.28
2022-10-05T02:41:05.247Z,49643.28
2022-10-05T02:43:46.696Z,49603.41
2022-10-05T02:46:16.950Z,49609.38
2022-10-05T02:49:20.359Z,49675.19
2022-10-05T02:51:56.170Z,49609.38
2022-10-05T02:54:43.199Z,49621.34
2022-10-05T02:57:28.084Z,49643.28
2022-10-05T03:00:04.932Z,49653.25
2022-10-05T03:02:48.828Z,49641.28
2022-10-05T03:05:25.380Z,49667.19
2022-10-05T03:07:53.160Z,49651.25
2022-10-05T03:10:22.377Z,49615.38
2022-10-05T03:13:02.256Z,49651.25
2022-10-05T03:15:28.869Z,49721.03
2022-10-05T03:18:20.184Z,49637.28
2022-10-05T03:21:07.168Z,49631.31
2022-10-05T03:23:58.495Z,49693.13
2022-10-05T03:26:28.115Z,49627.31
2022-10-05T03:29:08.652Z,49669.19
2022-10-05T03:31:37.966Z,49661.22
2022-10-05T03:34:18.416Z,49651.25
2022-10-05T03:36:55.822Z,49679.16
2022-10-05T03:39:44.815Z,49635.31
2022-10-05T03:42:32.736Z,49643.28
2022-10-05T03:45:02.312Z,49659.22
2022-10-05T03:47:37.494Z,49637.28
2022-10-05T03:50:44.416Z,49667.19
2022-10-05T03:53:19.837Z,49651.25
2022-10-05T03:55:59.572Z,49619.34
2022-10-05T03:58:39.302Z,49651.25
2022-10-05T04:01:14.586Z,49627.31
2022-10-05T04:03:46.176Z,49617.38
2022-10-05T04:06:15.884Z,49641.28
2022-10-05T04:09:11.078Z,49651.25
2022-10-05T04:11:48.788Z,49659.22
2022-10-05T04:14:15.356Z,49645.28
2022-10-05T04:16:47.305Z,49639.28
2022-10-05T04:19:26.136Z,49659.22
2022-10-05T04:22:11.990Z,49611.38
2022-10-05T04:25:03.031Z,49639.28
2022-10-05T04:27:44.048Z,49637.28
2022-10-05T04:30:19.858Z,49639.28
2022-10-05T04:32:55.134Z,49677.16
2022-10-05T04:35:44.050Z,49623.34
2022-10-05T04:38:28.024Z,49639.28
2022-10-05T04:41:09.281Z,49645.28
2022-10-05T04:43:56.496Z,49645.28
2022-10-05T04:46:29.681Z,49665.22
2022-10-05T04:49:20.524Z,49641.28
2022-10-05T04:52:00.681Z,49647.25
2022-10-05T04:55:00.478Z,49663.22
2022-10-05T04:57:32.323Z,49643.28
2022-10-05T05:00:20.245Z,49693.13
2022-10-05T05:03:30.019Z,49635.31
2022-10-05T05:06:17.012Z,49661.22
2022-10-05T05:09:29.216Z,49659.22
2022-10-05T05:12:03.746Z,49621.34
2022-10-05T05:14:35.420Z,49631.31
2022-10-05T05:17:31.049Z,49627.31
2022-10-05T05:20:22.495Z,49617.38
2022-10-05T05:23:21.055Z,49639.28
2022-10-05T05:26:02.297Z,49633.31
2022-10-05T05:28:59.878Z,49655.25
2022-10-05T05:31:46.000Z,49669.19
2022-10-05T05:34:37.654Z,49623.34
2022-10-05T05:37:42.906Z,49639.28
2022-10-05T05:40:22.112Z,49655.25
2022-10-05T05:42:59.006Z,49663.22
2022-10-05T05:45:37.634Z,49615.38
2022-10-05T05:48:25.342Z,49645.28
2022-10-05T05:50:59.802Z,49657.22
2022-10-05T05:53:37.534Z,49661.22
2022-10-05T05:56:14.606Z,49619.34
2022-10-05T05:58:54.646Z,49663.22
2022-10-05T06:01:38.486Z,49645.28
2022-10-05T06:04:15.979Z,49655.25
2022-10-05T06:06:50.910Z,49639.28
2022-10-05T06:09:35.226Z,49625.34
2022-10-05T06:12:48.271Z,49619.34
2022-10-05T06:15:28.513Z,49651.25
2022-10-05T06:18:01.582Z,49633.31
2022-10-05T06:20:35.512Z,49665.22
2022-10-05T06:23:10.577Z,49627.31
2022-10-05T06:25:58.726Z,49639.28
2022-10-05T06:28:27.328Z,49615.38
2022-10-05T06:31:20.853Z,49647.25
2022-10-05T06:33:54.477Z,49655.25
2022-10-05T06:36:27.924Z,49633.31
2022-10-05T06:39:00.679Z,49623.34
2022-10-05T06:41:42.588Z,49683.16
2022-10-05T06:44:13.682Z,49619.34
2022-10-05T06:47:00.796Z,49621.34
2022-10-05T06:50:21.707Z,49639.28
2022-10-05T06:53:34.176Z,49637.28
2022-10-05T06:56:19.710Z,49617.38
2022-10-05T06:59:01.881Z,49651.25
2022-10-05T07:01:56.278Z,49639.28
2022-10-05T07:04:38.396Z,49615.38
2022-10-05T07:07:31.315Z,49643.28
2022-10-05T07:10:33.866Z,49637.28
2022-10-05T07:13:39.789Z,49643.28
2022-10-05T07:16:35.558Z,49631.31
2022-10-05T07:19:25.971Z,49605.41
2022-10-05T07:22:18.935Z,49603.41
2022-10-05T07:25:06.261Z,49617.38
2022-10-05T07:27:41.459Z,49639.28
2022-10-05T07:30:12.604Z,49653.25
2022-10-05T07:32:59.727Z,49643.28
2022-10-05T07:35:59.470Z,49643.28
2022-10-05T07:38:33.383Z,49613.38
2022-10-05T07:41:36.026Z,49631.31
2022-10-05T07:44:33.334Z,49655.25
2022-10-05T07:47:23.312Z,49631.31
2022-10-05T07:50:03.994Z,49627.31
2022-10-05T07:52:39.119Z,49619.34
2022-10-05T07:55:28.006Z,49583.47
2022-10-05T07:58:03.791Z,49619.34
2022-10-05T08:00:51.488Z,49611.38
2022-10-05T08:03:34.409Z,49647.25
2022-10-05T08:06:04.459Z,49613.38
2022-10-05T08:08:57.396Z,49631.31
2022-10-05T08:11:43.790Z,49603.41
2022-10-05T08:14:39.925Z,49607.41
2022-10-05T08:17:25.606Z,49637.28
2022-10-05T08:20:15.576Z,49597.44
2022-10-05T08:22:47.632Z,49635.31
2022-10-05T08:25:26.539Z,49599.41
2022-10-05T08:27:59.554Z,49621.34
2022-10-05T08:30:26.344Z,49625.34
2022-10-05T08:33:14.751Z,49603.41
2022-10-05T08:35:44.839Z,49607.41
2022-10-05T08:38:17.218Z,49647.25
2022-10-05T08:40:46.874Z,49601.41
2022-10-05T08:43:19.236Z,49647.25
2022-10-05T08:46:10.734Z,49571.50
2022-10-05T08:49:04.614Z,49603.41
2022-10-05T08:51:31.155Z,49591.44
2022-10-05T08:54:15.745Z,49571.50
2022-10-05T08:57:07.762Z,49603.41
2022-10-05T08:59:59.267Z,49643.28
2022-10-05T09:02:53.647Z,49583.47
2022-10-05T09:05:47.999Z,49615.38
2022-10-05T09:08:37.923Z,49637.28
2022-10-05T09:11:17.083Z,49611.38
2022-10-05T09:13:55.615Z,49607.41
2022-10-05T09:16:34.234Z,49601.41
2022-10-05T09:19:22.782Z,49559.56
2022-10-05T09:22:24.090Z,49635.31
2022-10-05T09:25:10.660Z,49631.31
2022-10-05T09:27:39.200Z,49615.38
2022-10-05T09:30:26.991Z,49617.38
2022-10-05T09:33:25.855Z,49581.47
2022-10-05T09:36:16.025Z,49591.44
2022-10-05T09:39:04.126Z,49609.38
2022-10-05T09:42:01.268Z,49615.38
2022-10-05T09:44:55.036Z,49605.41
2022-10-05T09:48:01.408Z,49593.44
2022-10-05T09:50:58.792Z,49595.44
2022-10-05T09:53:41.322Z,49609.38
2022-10-05T09:56:25.109Z,49587.47
2022-10-05T09:59:29.428Z,49583.47
2022-10-05T10:02:44.113Z,49577.50
2022-10-05T10:05:39.719Z,49581.47
2022-10-05T10:08:16.550Z,49605.41
2022-10-05T10:11:16.440Z,49575.50
2022-10-05T10:13:53.612Z,49571.50
2022-10-05T10:16:37.525Z,49591.44
2022-10-05T10:19:24.060Z,49615.38
2022-10-05T10:22:18.809Z,49563.53
2022-10-05T10:25:02.313Z,49565.53
2022-10-05T10:28:08.993Z,49591.44
2022-10-05T10:31:10.736Z,49563.53
2022-10-05T10:33:46.949Z,49551.56
2022-10-05T10:36:44.526Z,49559.56
2022-10-05T10:39:31.356Z,49579.47
2022-10-05T10:42:07.213Z,49601.41
2022-10-05T10:45:17.371Z,49543.59
2022-10-05T10:47:50.530Z,49531.63
2022-10-05T10:50:47.370Z,49607.41
2022-10-05T10:53:37.120Z,49583.47
2022-10-05T10:56:30.057Z,49547.59
2022-10-05T10:59:26.717Z,49579.47
2022-10-05T11:02:20.563Z,49577.50
2022-10-05T11:05:18.148Z,49569.50
2022-10-05T11:08:41.837Z,49549.59
2022-10-05T11:11:27.277Z,49563.53
2022-10-05T11:14:15.349Z,49563.53
2022-10-05T11:17:23.258Z,49531.63
2022-10-05T11:20:04.452Z,49547.59
2022-10-05T11:22:54.912Z,49529.66
2022-10-05T11:25:44.427Z,49581.47
2022-10-05T11:28:27.458Z,49559.56
2022-10-05T11:31:31.150Z,49553.56
2022-10-05T11:34:36.227Z,49551.56
2022-10-05T11:37:38.061Z,49535.63
2022-10-05T11:40:10.850Z,49587.47
2022-10-05T11:43:09.528Z,49545.59
2022-10-05T11:45:54.662Z,49515.69
2022-10-05T11:48:39.445Z,49523.66
2022-10-05T11:51:19.177Z,49483.81
2022-10-05T11:54:02.606Z,49497.75
2022-10-05T11:56:54.839Z,49527.66
2022-10-05T11:59:39.460Z,49537.63
2022-10-05T12:02:33.403Z,49533.63
2022-10-05T12:05:19.445Z,49531.63
2022-10-05T12:07:57.468Z,49539.63
2022-10-05T12:10:43.011Z,49529.66
2022-10-05T12:13:21.637Z,49519.69
2022-10-05T12:16:03.456Z,49513.69
2022-10-05T12:18:30.275Z,49533.63
2022-10-05T12:21:10.821Z,49495.75
2022-10-05T12:23:47.132Z,49521.69
2022-10-05T12:26:24.619Z,49511.72
2022-10-05T12:29:01.647Z,49527.66
2022-10-05T12:31:59.796Z,49517.69
2022-10-05T12:35:03.260Z,49489.78
2022-10-05T12:37:42.545Z,49483.81
2022-10-05T12:40:24.379Z,49463.88
2022-10-05T12:43:07.572Z,49453.91
2022-10-05T12:45:45.914Z,49483.81
2022-10-05T12:48:18.846Z,49459.88
2022-10-05T12:51:08.694Z,49531.63
2022-10-05T12:53:57.072Z,49537.63
2022-10-05T12:56:48.613Z,49481.81
2022-10-05T12:59:44.924Z,49567.53
2022-10-05T13:03:01.886Z,49505.72
2022-10-05T13:05:39.881Z,49475.81
2022-10-05T13:08:32.629Z,49475.81
2022-10-05T13:11:36.270Z,49513.69
2022-10-05T13:14:23.721Z,49539.63
2022-10-05T13:17:08.874Z,49547.59
2022-10-05T13:19:47.874Z,49511.72
2022-10-05T13:22:34.314Z,49531.63
2022-10-05T13:25:21.275Z,49515.69
2022-10-05T13:28:14.861Z,49505.72
2022-10-05T13:30:50.782Z,49517.69
2022-10-05T13:33:52.517Z,49551.56
2022-10-05T13:36:35.907Z,49537.63
2022-10-05T13:39:55.327Z,49539.63
2022-10-05T13:42:32.323Z,49483.81
2022-10-05T13:45:21.405Z,49553.56
2022-10-05T13:48:03.096Z,49579.47
2022-10-05T13:50:34.386Z,49503.72
2022-10-05T13:53:23.873Z,49537.63
2022-10-05T13:55:56.325Z,49545.59
2022-10-05T13:58:42.959Z,49489.78
2022-10-05T14:01:22.321Z,49503.72
2022-10-05T14:04:10.891Z,49489.78
2022-10-05T14:06:38.933Z,49479.81
2022-10-05T14:09:12.661Z,49483.81
2022-10-05T14:11:49.115Z,49507.72
2022-10-05T14:14:50.037Z,49491.78
2022-10-05T14:17:33.043Z,49427.97
2022-10-05T14:20:02.831Z,49537.63
2022-10-05T14:22:29.512Z,49571.50
2022-10-05T14:25:02.053Z,49567.53
2022-10-05T14:27:35.425Z,49575.50
2022-10-05T14:30:19.129Z,49539.63
2022-10-05T14:32:59.140Z,49565.53
2022-10-05T14:35:30.187Z,49559.56
2022-10-05T14:37:56.795Z,49599.41
2022-10-05T14:40:26.406Z,49589.44
2022-10-05T14:42:53.656Z,49575.50
2022-10-05T14:45:25.800Z,49541.59
2022-10-05T14:48:01.864Z,49579.47
2022-10-05T14:50:30.884Z,49543.59
2022-10-05T14:53:03.137Z,49563.53
2022-10-05T14:55:58.883Z,49581.47
2022-10-05T14:58:31.424Z,49537.63
2022-10-05T15:01:20.598Z,49549.59
2022-10-05T15:04:02.643Z,49533.63
2022-10-05T15:06:42.617Z,49569.50
2022-10-05T15:09:27.503Z,49583.47
2022-10-05T15:12:01.269Z,49549.59
2022-10-05T15:14:36.473Z,49587.47
2022-10-05T15:17:13.179Z,49531.63
2022-10-05T15:20:10.542Z,49553.56
2022-10-05T15:22:59.468Z,49577.50
2022-10-05T15:25:34.040Z,49551.56
2022-10-05T15:28:35.937Z,49581.47
2022-10-05T15:31:21.217Z,49579.47
2022-10-05T15:33:53.759Z,49579.47
2022-10-05T15:36:35.483Z,49535.63
2022-10-05T15:39:23.905Z,49579.47
2022-10-05T15:42:00.206Z,49533.63
2022-10-05T15:44:52.161Z,49591.44
2022-10-05T15:47:25.521Z,49567.53
2022-10-05T15:50:02.477Z,49561.53
2022-10-05T15:52:43.886Z,49565.53
2022-10-05T15:55:28.723Z,49601.41
2022-10-05T15:58:26.480Z,49587.47
2022-10-05T16:01:10.253Z,49547.59
2022-10-05T16:03:45.767Z,49535.63
2022-10-05T16:06:49.221Z,49587.47
2022-10-05T16:09:35.638Z,49545.59
2022-10-05T16:12:22.636Z,49567.53
2022-10-05T16:15:08.719Z,49561.53
2022-10-05T16:17:59.768Z,49567.53
2022-10-05T16:20:35.790Z,49615.38
2022-10-05T16:23:17.699Z,49579.47
2022-10-05T16:25:59.724Z,49587.47
2022-10-05T16:28:52.926Z,49581.47
2022-10-05T16:31:28.726Z,49563.53
2022-10-05T16:34:01.029Z,49591.44
2022-10-05T16:36:44.508Z,49591.44
2022-10-05T16:39:17.136Z,49559.56
2022-10-05T16:42:07.739Z,49557.56
2022-10-05T16:44:53.570Z,49579.47
2022-10-05T16:47:46.443Z,49607.41
2022-10-05T16:50:19.997Z,49553.56
2022-10-05T16:52:55.483Z,49587.47
2022-10-05T16:55:46.286Z,49583.47
2022-10-05T16:58:21.370Z,49569.50
2022-10-05T17:01:00.232Z,49547.59
2022-10-05T17:03:54.829Z,49571.50
2022-10-05T17:06:30.381Z,49543.59
2022-10-05T17:09:12.309Z,49531.63
2022-10-05T17:12:00.273Z,49587.47
2022-10-05T17:14:41.510Z,49575.50
2022-10-05T17:17:38.237Z,49555.56
2022-10-05T17:20:29.456Z,49597.44
2022-10-05T17:23:04.069Z,49571.50
2022-10-05T17:26:09.798Z,49575.50
2022-10-05T17:28:41.304Z,49583.47
2022-10-05T17:31:21.610Z,49565.53
2022-10-05T17:34:10.478Z,49593.44
2022-10-05T17:36:50.451Z,49561.53
2022-10-05T17:39:22.642Z,49583.47
2022-10-05T17:41:49.709Z,49563.53
2022-10-05T17:44:21.827Z,49609.38
2022-10-05T17:46:54.853Z,49589.44
2022-10-05T17:49:40.109Z,49587.47
2022-10-05T17:52:42.586Z,49545.59
2022-10-05T17:55:58.774Z,49575.50
2022-10-05T17:58:28.967Z,49559.56
2022-10-05T18:00:58.848Z,49555.56
2022-10-05T18:03:47.607Z,49559.56
2022-10-05T18:06:26.422Z,49575.50
2022-10-05T18:09:16.908Z,49555.56
2022-10-05T18:11:48.011Z,49577.50
2022-10-05T18:14:26.505Z,49557.56
2022-10-05T18:17:02.625Z,49599.41
2022-10-05T18:19:33.206Z,49599.41
2022-10-05T18:22:17.963Z,49569.50
2022-10-05T18:25:06.740Z,49565.53
2022-10-05T18:28:13.857Z,49571.50
2022-10-05T18:30:59.253Z,49579.47
2022-10-05T18:33:39.205Z,49541.59
2022-10-05T18:36:37.890Z,49551.56
2022-10-05T18:39:41.149Z,49547.59
2022-10-05T18:42:20.479Z,49577.50
2022-10-05T18:44:56.415Z,49581.47
2022-10-05T18:47:23.066Z,49563.53
2022-10-05T18:50:12.073Z,49591.44
2022-10-05T18:53:13.045Z,49583.47
2022-10-05T18:55:46.509Z,49551.56
2022-10-05T18:58:56.996Z,49567.53
2022-10-05T19:01:49.113Z,49567.53
2022-10-05T19:04:40.342Z,49579.47
2022-10-05T19:07:09.797Z,49567.53
2022-10-05T19:09:51.574Z,49569.50
2022-10-05T19:12:41.516Z,49611.38
2022-10-05T19:15:29.007Z,49579.47
2022-10-05T19:18:08.577Z,49581.47
2022-10-05T19:20:48.585Z,49579.47
2022-10-05T19:23:29.924Z,49571.50
2022-10-05T19:26:24.562Z,49595.44
2022-10-05T19:29:10.095Z,49583.47
2022-10-05T19:31:48.197Z,49537.63
2022-10-05T19:34:45.863Z,49563.53
2022-10-05T19:37:31.163Z,49559.56
2022-10-05T19:40:16.413Z,49559.56
2022-10-05T19:42:46.219Z,49609.38
2022-10-05T19:45:27.385Z,49595.44
2022-10-05T19:48:21.942Z,49625.34
2022-10-05T19:50:57.599Z,49593.44
2022-10-05T19:53:31.206Z,49635.31
2022-10-05T19:56:17.469Z,49587.47
2022-10-05T19:58:44.957Z,49629.31
2022-10-05T20:01:12.778Z,49611.38
2022-10-05T20:03:41.063Z,49599.41
2022-10-05T20:06:10.280Z,49647.25
2022-10-05T20:08:39.337Z,49623.34
2022-10-05T20:11:07.756Z,49583.47
2022-10-05T20:13:35.852Z,49615.38
2022-10-05T20:16:36.194Z,49619.34
2022-10-05T20:19:41.678Z,49603.41
2022-10-05T20:22:32.807Z,49611.38
2022-10-05T20:25:06.247Z,49607.41
2022-10-05T20:27:48.650Z,49589.44
2022-10-05T20:30:20.675Z,49595.44
2022-10-05T20:32:51.328Z,49609.38
2022-10-05T20:35:21.615Z,49609.38
2022-10-05T20:37:49.945Z,49577.50
2022-10-05T20:40:18.737Z,49635.31
2022-10-05T20:42:45.510Z,49635.31
2022-10-05T20:45:13.543Z,49641.28
2022-10-05T20:47:40.595Z,49623.34
2022-10-05T20:50:10.148Z,49633.31
2022-10-05T20:52:37.658Z,49631.31
2022-10-05T20:55:06.546Z,49575.50
2022-10-05T20:57:33.452Z,49603.41
2022-10-05T21:00:00.138Z,49589.44
2022-10-05T21:02:26.757Z,49609.38
2022-10-05T21:04:53.400Z,49651.25
2022-10-05T21:07:21.160Z,49623.34
2022-10-05T21:09:47.882Z,49601.41
2022-10-05T21:12:14.598Z,49643.28
2022-10-05T21:14:41.230Z,49659.22
2022-10-05T21:17:08.143Z,49615.38
2022-10-05T21:19:41.015Z,49653.25
2022-10-05T21:22:09.177Z,49591.44
2022-10-05T21:24:37.575Z,49631.31
2022-10-05T21:27:05.129Z,49647.25
2022-10-05T21:29:32.943Z,49651.25
2022-10-05T21:31:59.849Z,49619.34
2022-10-05T21:34:26.575Z,49683.16
2022-10-05T21:36:53.200Z,49655.25
2022-10-05T21:39:20.271Z,49625.34
2022-10-05T21:41:49.620Z,49655.25
2022-10-05T21:44:16.680Z,49667.19
2022-10-05T21:46:43.533Z,49637.28
2022-10-05T21:49:10.249Z,49621.34
2022-10-05T21:51:38.384Z,49631.31
2022-10-05T21:54:15.227Z,49633.31
2022-10-05T21:56:46.313Z,49639.28
2022-10-05T21:59:16.289Z,49683.16
2022-10-05T22:01:42.909Z,49651.25
2022-10-05T22:04:09.775Z,49683.16
2022-10-05T22:06:37.092Z,49641.28
2022-10-05T22:09:04.718Z,49605.41
2022-10-05T22:11:32.251Z,49635.31
2022-10-05T22:14:02.761Z,49595.44
2022-10-05T22:16:36.654Z,49675.19
2022-10-05T22:19:13.139Z,49629.31
2022-10-05T22:21:41.821Z,49659.22
2022-10-05T22:24:11.421Z,49669.19
2022-10-05T22:26:38.809Z,49645.28
2022-10-05T22:29:05.561Z,49663.22
2022-10-05T22:31:32.330Z,49651.25
2022-10-05T22:33:58.994Z,49673.19
2022-10-05T22:36:25.961Z,49617.38
2022-10-05T22:38:52.569Z,49647.25
2022-10-05T22:41:19.409Z,49639.28
2022-10-05T22:43:50.233Z,49673.19
2022-10-05T22:46:17.775Z,49661.22
2022-10-05T22:48:44.439Z,49653.25
2022-10-05T22:51:11.286Z,49631.31
2022-10-05T22:53:37.922Z,49683.16
2022-10-05T22:56:09.531Z,49643.28
2022-10-05T22:58:36.960Z,49673.19
2022-10-05T23:01:06.515Z,49673.19
2022-10-05T23:03:33.717Z,49667.19
2022-10-05T23:06:03.599Z,49631.31
2022-10-05T23:08:34.983Z,49651.25
2022-10-05T23:11:15.666Z,49643.28
2022-10-05T23:13:42.986Z,49637.28
2022-10-05T23:16:10.803Z,49667.19
2022-10-05T23:18:37.852Z,49633.31
2022-10-05T23:21:07.442Z,49651.25
2022-10-05T23:23:38.351Z,49651.25
2022-10-05T23:26:06.824Z,49649.25
2022-10-05T23:28:33.887Z,49655.25
2022-10-05T23:31:02.557Z,49687.13
2022-10-05T23:33:29.587Z,49659.22
2022-10-05T23:35:59.675Z,49661.22
2022-10-05T23:38:26.859Z,49667.19
2022-10-05T23:40:54.110Z,49633.31
2022-10-05T23:43:20.806Z,49631.31
2022-10-05T23:45:48.030Z,49675.19
2022-10-05T23:48:14.963Z,49665.22
2022-10-05T23:50:45.315Z,49679.16
2022-10-05T23:53:12.650Z,49675.19
2022-10-05T23:55:39.235Z,49687.13
2022-10-05T23:58:05.871Z,49663.22
